Quesnel, Canada
Current Conditions -  °F | °C
As of 12:07 PM on Wednesday 28 Jan 2015 (Local Time) from CYQZ Reporting Station
Scattered Clouds Scattered Clouds  
Wind Chill: 25°   Ceiling: Unl
Heat Index: 25°   Visibility: 9mi
Dew Point: 25°   Wind: 2mph
Humidity: 100%   Direction: NA
Pressure: 30.38"   Gusts: NA
Location:  52.98°N, 122.5°W
Report Text: CYQZ 282007Z AUTO VRB02KT 9SM SCT005 M04/M04 A3038 RMK SLP323
Loading
Personal Weather Stations






























Interactive Weather Map New forecast layout! Learn more

10-Day Weather Forecast

Advertisements
Track Severe Weather on mobile